createdAt,value
2023-02-24T00:00:32.617Z,21.67
2023-02-24T00:02:37.946Z,23.52
2023-02-24T00:06:51.293Z,26.50
2023-02-24T00:08:56.377Z,22.77
2023-02-24T00:11:01.399Z,24.38
2023-02-24T00:13:06.195Z,24.38
2023-02-24T00:15:15.129Z,26.88
2023-02-24T00:17:20.006Z,24.38
2023-02-24T00:19:27.033Z,25.42
2023-02-24T00:21:34.478Z,23.05
2023-02-24T00:23:40.658Z,23.65
2023-02-24T00:25:45.433Z,23.75
2023-02-24T00:27:52.470Z,23.17
2023-02-24T00:30:01.819Z,24.25
2023-02-24T00:32:08.277Z,25.15
2023-02-24T00:34:15.736Z,25.60
2023-02-24T00:36:24.080Z,23.70
2023-02-24T00:38:35.941Z,26.83
2023-02-24T00:40:41.557Z,25.52
2023-02-24T00:42:46.306Z,26.27
2023-02-24T00:44:54.178Z,23.52
2023-02-24T00:46:59.108Z,26.27
2023-02-24T00:49:06.521Z,19.05
2023-02-24T00:51:13.055Z,24.98
2023-02-24T00:53:18.441Z,23.20
2023-02-24T00:57:33.500Z,22.65
2023-02-24T00:59:39.221Z,19.75
2023-02-24T01:01:45.419Z,30.40
2023-02-24T01:03:51.767Z,28.20
2023-02-24T01:05:56.821Z,29.42
2023-02-24T01:08:02.854Z,24.38
2023-02-24T01:10:08.912Z,27.63
2023-02-24T01:12:30.351Z,28.48
2023-02-24T01:14:37.294Z,25.95
2023-02-24T01:16:44.798Z,26.33
2023-02-24T01:18:50.636Z,24.02
2023-02-24T01:20:55.494Z,21.90
2023-02-24T01:23:00.658Z,26.17
2023-02-24T01:27:17.710Z,31.67
2023-02-24T01:29:23.166Z,32.20
2023-02-24T01:31:28.971Z,28.98
2023-02-24T01:33:37.329Z,26.73
2023-02-24T01:35:42.763Z,32.17
2023-02-24T01:37:48.105Z,29.45
2023-02-24T01:42:01.756Z,32.38
2023-02-24T01:44:32.783Z,28.05
2023-02-24T01:46:39.836Z,29.83
2023-02-24T01:48:44.651Z,28.45
2023-02-24T01:50:50.751Z,34.03
2023-02-24T01:53:04.308Z,30.50
2023-02-24T01:55:16.588Z,27.15
2023-02-24T01:57:25.219Z,34.15
2023-02-24T01:59:33.587Z,30.15
2023-02-24T02:01:40.928Z,30.35
2023-02-24T02:03:48.754Z,32.17
2023-02-24T02:05:59.073Z,31.88
2023-02-24T02:08:04.801Z,32.53
2023-02-24T02:10:13.360Z,30.60
2023-02-24T02:12:18.984Z,29.95
2023-02-24T02:14:27.350Z,31.77
2023-02-24T02:16:58.442Z,32.17
2023-02-24T02:19:21.892Z,28.63
2023-02-24T02:21:48.902Z,31.33
2023-02-24T02:24:04.695Z,38.00
2023-02-24T02:28:56.102Z,33.55
2023-02-24T02:31:46.741Z,30.55
2023-02-24T02:34:21.250Z,29.48
2023-02-24T02:36:33.485Z,34.45
2023-02-24T02:38:45.033Z,29.08
2023-02-24T02:40:57.869Z,33.78
2023-02-24T02:43:07.823Z,35.22
2023-02-24T02:45:18.241Z,29.15
2023-02-24T02:47:28.101Z,28.90
2023-02-24T02:49:41.854Z,28.98
2023-02-24T02:51:52.760Z,33.58
2023-02-24T02:54:05.016Z,29.25
2023-02-24T02:56:14.730Z,28.70
2023-02-24T02:58:26.303Z,25.48
2023-02-24T03:00:35.327Z,26.95
2023-02-24T03:02:42.767Z,31.63
2023-02-24T03:04:55.349Z,32.15
2023-02-24T03:07:04.926Z,30.38
2023-02-24T03:09:16.113Z,35.17
2023-02-24T03:11:24.705Z,32.03
2023-02-24T03:13:32.978Z,26.80
2023-02-24T03:15:42.334Z,29.10
2023-02-24T03:17:49.589Z,29.75
2023-02-24T03:20:15.140Z,30.30
2023-02-24T03:22:24.935Z,27.33
2023-02-24T03:24:30.684Z,27.00
2023-02-24T03:26:44.210Z,26.85
2023-02-24T03:28:59.375Z,29.40
2023-02-24T03:31:11.157Z,27.67
2023-02-24T03:33:24.408Z,25.05
2023-02-24T03:35:34.450Z,30.58
2023-02-24T03:37:41.256Z,26.75
2023-02-24T03:39:47.773Z,30.13
2023-02-24T03:42:04.405Z,31.17
2023-02-24T03:44:14.939Z,34.85
2023-02-24T03:46:20.365Z,29.63
2023-02-24T03:48:26.654Z,26.42
2023-02-24T03:50:35.855Z,30.58
2023-02-24T03:52:57.725Z,31.95
2023-02-24T03:55:19.669Z,28.13
2023-02-24T03:57:35.338Z,25.60
2023-02-24T03:59:52.983Z,30.95
2023-02-24T04:02:04.166Z,35.75
2023-02-24T04:04:24.537Z,29.02
2023-02-24T04:06:49.962Z,30.75
2023-02-24T04:09:13.321Z,30.02
2023-02-24T04:11:32.968Z,30.58
2023-02-24T04:13:43.953Z,32.28
2023-02-24T04:16:04.345Z,30.75
2023-02-24T04:18:17.654Z,30.13
2023-02-24T04:20:29.544Z,34.15
2023-02-24T04:22:41.058Z,33.90
2023-02-24T04:24:51.771Z,38.38
2023-02-24T04:27:37.079Z,34.35
2023-02-24T04:30:15.791Z,37.38
2023-02-24T04:32:24.840Z,33.92
2023-02-24T04:34:32.493Z,32.97
2023-02-24T04:36:38.627Z,40.80
2023-02-24T04:38:47.632Z,39.58
2023-02-24T04:40:52.734Z,38.05
2023-02-24T04:42:59.770Z,39.95
2023-02-24T04:45:10.133Z,39.90
2023-02-24T04:47:15.332Z,38.67
2023-02-24T04:49:22.379Z,37.47
2023-02-24T04:51:27.205Z,40.20
2023-02-24T04:53:32.200Z,39.78
2023-02-24T04:55:42.434Z,38.42
2023-02-24T04:57:48.016Z,39.42
2023-02-24T04:59:54.196Z,38.20
2023-02-24T05:02:01.677Z,30.05
2023-02-24T05:04:06.764Z,34.33
2023-02-24T05:06:17.370Z,34.10
2023-02-24T05:08:23.091Z,31.73
2023-02-24T05:10:28.511Z,35.38
2023-02-24T05:14:44.881Z,34.75
2023-02-24T05:16:51.604Z,35.03
2023-02-24T05:19:08.655Z,34.28
2023-02-24T05:21:28.779Z,36.03
2023-02-24T05:23:36.212Z,37.55
2023-02-24T05:25:43.232Z,38.45
2023-02-24T05:27:50.705Z,37.92
2023-02-24T05:29:55.913Z,38.13
2023-02-24T05:32:02.695Z,37.33
2023-02-24T05:34:09.902Z,35.28
2023-02-24T05:36:18.030Z,40.50
2023-02-24T05:38:22.928Z,37.60
2023-02-24T05:40:28.413Z,40.72
2023-02-24T05:42:35.083Z,41.10
2023-02-24T05:44:42.564Z,34.28
2023-02-24T05:46:49.869Z,39.67
2023-02-24T05:48:57.048Z,36.83
2023-02-24T05:51:03.169Z,35.28
2023-02-24T05:53:09.592Z,39.65
2023-02-24T05:55:14.547Z,39.28
2023-02-24T05:57:27.534Z,41.30
2023-02-24T05:59:33.675Z,37.72
2023-02-24T06:01:45.808Z,40.90
2023-02-24T06:03:50.749Z,39.80
2023-02-24T06:05:59.335Z,41.50
2023-02-24T06:08:11.837Z,39.75
2023-02-24T06:10:17.320Z,37.28
2023-02-24T06:12:23.755Z,43.30
2023-02-24T06:14:28.940Z,40.60
2023-02-24T06:16:34.414Z,37.63
2023-02-24T06:18:41.927Z,37.45
2023-02-24T06:20:51.364Z,36.85
2023-02-24T06:22:58.353Z,37.67
2023-02-24T06:25:05.396Z,47.63
2023-02-24T06:27:17.891Z,45.00
2023-02-24T06:29:25.084Z,47.92
2023-02-24T06:31:30.675Z,42.05
2023-02-24T06:33:36.351Z,45.85
2023-02-24T06:35:43.826Z,45.17
2023-02-24T06:37:50.567Z,38.75
2023-02-24T06:39:55.536Z,37.38
2023-02-24T06:42:03.960Z,42.90
2023-02-24T06:44:09.599Z,47.95
2023-02-24T06:46:16.113Z,38.45
2023-02-24T06:48:23.080Z,39.85
2023-02-24T06:50:28.994Z,38.35
2023-02-24T06:52:36.570Z,35.95
2023-02-24T06:54:42.052Z,37.22
2023-02-24T06:56:47.926Z,43.28
2023-02-24T06:58:57.357Z,42.00
2023-02-24T07:01:04.713Z,42.00
2023-02-24T07:03:17.541Z,38.05
2023-02-24T07:05:24.305Z,45.47
2023-02-24T07:07:29.394Z,45.55
2023-02-24T07:09:36.889Z,38.92
2023-02-24T07:11:46.905Z,41.20
2023-02-24T07:13:55.034Z,37.97
2023-02-24T07:16:07.098Z,44.85
2023-02-24T07:18:14.957Z,43.45
2023-02-24T07:20:25.672Z,45.58
2023-02-24T07:22:31.740Z,46.35
2023-02-24T07:24:46.367Z,42.15
2023-02-24T07:26:56.351Z,38.95
2023-02-24T07:29:04.603Z,47.03
2023-02-24T07:31:12.011Z,45.03
2023-02-24T07:33:18.205Z,41.95
2023-02-24T07:35:24.047Z,49.13
2023-02-24T07:37:31.879Z,42.45
2023-02-24T07:39:43.091Z,39.65
2023-02-24T07:41:49.669Z,39.42
2023-02-24T07:43:56.335Z,39.25
2023-02-24T07:46:01.587Z,41.17
2023-02-24T07:48:06.672Z,37.05
2023-02-24T07:50:14.708Z,42.78
2023-02-24T07:52:19.509Z,37.40
2023-02-24T07:54:25.460Z,40.75
2023-02-24T07:56:34.128Z,38.28
2023-02-24T07:58:39.338Z,36.25
2023-02-24T08:03:04.440Z,49.20
2023-02-24T08:05:09.613Z,41.08
2023-02-24T08:07:15.439Z,40.63
2023-02-24T08:09:42.526Z,42.65
2023-02-24T08:11:55.487Z,47.58
2023-02-24T08:14:02.750Z,42.25
2023-02-24T08:16:09.111Z,40.38
2023-02-24T08:18:15.225Z,46.97
2023-02-24T08:20:29.804Z,41.58
2023-02-24T08:22:37.446Z,42.58
2023-02-24T08:24:43.683Z,50.83
2023-02-24T08:27:04.402Z,49.47
2023-02-24T08:29:09.657Z,46.85
2023-02-24T08:31:14.918Z,46.13
2023-02-24T08:33:23.918Z,43.83
2023-02-24T08:35:35.334Z,49.53
2023-02-24T08:37:47.164Z,43.53
2023-02-24T08:39:56.999Z,44.20
2023-02-24T08:42:04.959Z,48.00
2023-02-24T08:44:10.367Z,42.08
2023-02-24T08:46:27.926Z,46.58
2023-02-24T08:48:38.015Z,48.50
2023-02-24T08:50:45.706Z,44.03
2023-02-24T08:52:50.972Z,42.65
2023-02-24T08:54:59.298Z,44.97
2023-02-24T08:57:15.267Z,45.47
2023-02-24T08:59:46.058Z,45.13
2023-02-24T09:02:04.364Z,39.35
2023-02-24T09:04:12.470Z,44.63
2023-02-24T09:06:25.494Z,41.92
2023-02-24T09:08:32.813Z,44.75
2023-02-24T09:10:39.803Z,36.67
2023-02-24T09:12:49.350Z,46.10
2023-02-24T09:14:57.674Z,38.90
2023-02-24T09:17:06.557Z,43.25
2023-02-24T09:19:40.585Z,41.17
2023-02-24T09:22:01.015Z,46.45
2023-02-24T09:24:07.811Z,38.00
2023-02-24T09:26:14.134Z,40.72
2023-02-24T09:28:25.187Z,41.00
2023-02-24T09:30:51.478Z,39.42
2023-02-24T09:35:06.573Z,33.03
2023-02-24T09:37:25.004Z,37.65
2023-02-24T09:39:29.864Z,37.72
2023-02-24T09:41:55.522Z,36.13
2023-02-24T09:44:07.825Z,35.47
2023-02-24T09:46:17.119Z,35.83
2023-02-24T09:48:32.140Z,31.30
2023-02-24T09:51:03.299Z,35.05
2023-02-24T09:53:17.745Z,38.35
2023-02-24T09:55:30.868Z,36.40
2023-02-24T09:58:03.520Z,33.85
2023-02-24T10:00:33.763Z,31.45
2023-02-24T10:02:47.446Z,30.95
2023-02-24T10:05:07.666Z,34.22
2023-02-24T10:07:18.452Z,33.58
2023-02-24T10:09:33.639Z,29.42
2023-02-24T10:11:38.545Z,31.70
2023-02-24T10:13:50.630Z,33.58
2023-02-24T10:16:07.341Z,31.48
2023-02-24T10:18:29.933Z,33.50
2023-02-24T10:20:45.789Z,31.15
2023-02-24T10:22:57.943Z,31.10
2023-02-24T10:25:14.092Z,34.97
2023-02-24T10:27:24.678Z,32.58
2023-02-24T10:29:39.940Z,32.10
2023-02-24T10:31:57.784Z,31.88
2023-02-24T10:34:07.326Z,35.97
2023-02-24T10:36:17.334Z,30.85
2023-02-24T10:38:22.668Z,34.50
2023-02-24T10:42:55.107Z,31.05
2023-02-24T10:45:17.146Z,32.78
2023-02-24T10:47:31.235Z,34.50
2023-02-24T10:49:44.943Z,33.67
2023-02-24T10:51:55.731Z,32.08
2023-02-24T10:54:22.969Z,32.40
2023-02-24T10:56:41.987Z,33.60
2023-02-24T10:59:18.115Z,28.67
2023-02-24T11:01:40.841Z,31.10
2023-02-24T11:04:22.671Z,37.40
2023-02-24T11:06:41.500Z,30.00
2023-02-24T11:08:54.818Z,31.08
2023-02-24T11:11:07.356Z,29.23
2023-02-24T11:13:37.134Z,30.65
2023-02-24T11:15:59.355Z,27.48
2023-02-24T11:18:07.009Z,32.13
2023-02-24T11:20:22.864Z,26.83
2023-02-24T11:22:33.692Z,25.08
2023-02-24T11:24:41.240Z,26.20
2023-02-24T11:26:46.393Z,26.10
2023-02-24T11:29:06.808Z,26.10
2023-02-24T11:31:25.910Z,23.40
2023-02-24T11:33:42.612Z,26.67
2023-02-24T11:35:59.961Z,27.25
2023-02-24T11:38:12.315Z,25.30
2023-02-24T11:40:23.904Z,26.55
2023-02-24T11:42:33.294Z,24.83
2023-02-24T11:44:48.835Z,25.73
2023-02-24T11:46:58.011Z,24.38
2023-02-24T11:49:06.452Z,22.80
2023-02-24T11:51:23.588Z,22.58
2023-02-24T11:53:32.839Z,26.85
2023-02-24T11:55:43.152Z,26.25
2023-02-24T11:57:53.797Z,24.75
2023-02-24T12:00:13.383Z,23.13
2023-02-24T12:02:25.943Z,23.20
2023-02-24T12:04:35.228Z,23.30
2023-02-24T12:06:51.144Z,22.80
2023-02-24T12:11:09.916Z,25.02
2023-02-24T12:13:22.466Z,22.23
2023-02-24T12:15:30.952Z,25.55
2023-02-24T12:17:41.836Z,24.65
2023-02-24T12:19:57.634Z,24.15
2023-02-24T12:24:17.084Z,21.08
2023-02-24T12:26:25.527Z,26.70
2023-02-24T12:28:46.688Z,18.25
2023-02-24T12:31:03.547Z,21.17
2023-02-24T12:33:20.730Z,22.10
2023-02-24T12:35:35.317Z,19.20
2023-02-24T12:38:06.480Z,19.90
2023-02-24T12:40:26.442Z,16.75
2023-02-24T12:42:38.296Z,19.17
2023-02-24T12:44:52.495Z,21.73
2023-02-24T12:47:08.387Z,17.77
2023-02-24T12:49:45.512Z,17.25
2023-02-24T12:52:04.718Z,20.90
2023-02-24T12:54:20.081Z,17.60
2023-02-24T12:56:28.099Z,18.05
2023-02-24T12:58:36.823Z,19.70
2023-02-24T13:00:58.324Z,24.23
2023-02-24T13:03:11.875Z,17.27
2023-02-24T13:05:25.552Z,16.75
2023-02-24T13:07:45.967Z,20.83
2023-02-24T13:10:06.781Z,21.48
2023-02-24T13:12:18.613Z,20.02
2023-02-24T13:14:29.082Z,27.00
2023-02-24T13:16:36.009Z,20.48
2023-02-24T13:18:41.712Z,21.17
2023-02-24T13:20:46.552Z,16.15
2023-02-24T13:22:51.423Z,17.52
2023-02-24T13:25:22.222Z,17.17
2023-02-24T13:27:29.297Z,21.38
2023-02-24T13:29:34.103Z,19.15
2023-02-24T13:31:47.252Z,17.67
2023-02-24T13:33:52.910Z,19.30
2023-02-24T13:36:10.608Z,21.17
2023-02-24T13:38:38.970Z,20.15
2023-02-24T13:40:46.709Z,17.48
2023-02-24T13:43:02.065Z,18.10
2023-02-24T13:45:20.289Z,20.85
2023-02-24T13:47:52.402Z,20.92
2023-02-24T13:50:16.104Z,23.73
2023-02-24T13:52:34.577Z,19.98
2023-02-24T13:55:14.126Z,15.38
2023-02-24T13:57:49.406Z,21.88
2023-02-24T14:00:11.574Z,21.10
2023-02-24T14:02:21.241Z,21.50
2023-02-24T14:04:29.729Z,19.08
2023-02-24T14:06:34.872Z,23.70
2023-02-24T14:08:45.312Z,20.65
2023-02-24T14:10:55.615Z,18.25
2023-02-24T14:13:14.762Z,20.35
2023-02-24T14:15:24.765Z,19.48
2023-02-24T14:17:31.523Z,19.52
2023-02-24T14:19:36.423Z,22.38
2023-02-24T14:21:41.227Z,22.10
2023-02-24T14:23:46.036Z,21.88
2023-02-24T14:25:55.140Z,19.20
2023-02-24T14:28:00.529Z,25.80
2023-02-24T14:30:09.460Z,23.52
2023-02-24T14:32:22.864Z,23.30
2023-02-24T14:34:31.991Z,23.13
2023-02-24T14:36:41.771Z,22.75
2023-02-24T14:38:47.497Z,23.58
2023-02-24T14:40:52.375Z,25.45
2023-02-24T14:43:00.779Z,21.67
2023-02-24T14:45:20.915Z,23.30
2023-02-24T14:47:27.481Z,21.27
2023-02-24T14:49:33.552Z,24.92
2023-02-24T14:51:39.738Z,19.02
2023-02-24T14:53:51.447Z,23.42
2023-02-24T14:55:59.154Z,23.83
2023-02-24T14:58:09.165Z,24.52
2023-02-24T15:00:24.398Z,20.23
2023-02-24T15:02:34.935Z,24.55
2023-02-24T15:04:44.485Z,19.52
2023-02-24T15:06:49.490Z,21.58
2023-02-24T15:08:58.800Z,24.48
2023-02-24T15:11:08.982Z,21.42
2023-02-24T15:13:19.857Z,22.10
2023-02-24T15:15:29.789Z,26.58
2023-02-24T15:17:35.387Z,21.63
2023-02-24T15:19:44.369Z,22.38
2023-02-24T15:21:49.217Z,21.05
2023-02-24T15:24:02.535Z,21.20
2023-02-24T15:26:09.375Z,20.73
2023-02-24T15:28:27.438Z,19.27
2023-02-24T15:30:37.437Z,19.75
2023-02-24T15:32:42.623Z,19.00
2023-02-24T15:36:58.040Z,22.08
2023-02-24T15:39:05.485Z,17.70
2023-02-24T15:41:12.028Z,20.45
2023-02-24T15:43:33.415Z,19.02
2023-02-24T15:45:42.500Z,21.33
2023-02-24T15:47:48.430Z,19.65
2023-02-24T15:49:55.779Z,26.48
2023-02-24T15:52:04.054Z,19.13
2023-02-24T15:54:11.504Z,23.80
2023-02-24T15:56:17.378Z,21.13
2023-02-24T15:58:25.678Z,18.83
2023-02-24T16:00:32.110Z,17.33
2023-02-24T16:02:39.753Z,17.92
2023-02-24T16:04:44.609Z,19.08
2023-02-24T16:06:54.900Z,21.58
2023-02-24T16:09:00.957Z,20.40
2023-02-24T16:11:05.796Z,21.35
2023-02-24T16:13:20.297Z,20.42
2023-02-24T16:15:29.170Z,19.02
2023-02-24T16:17:36.580Z,19.63
2023-02-24T16:19:44.335Z,19.92
2023-02-24T16:21:49.230Z,20.27
2023-02-24T16:23:54.068Z,18.75
2023-02-24T16:26:01.453Z,19.98
2023-02-24T16:28:06.287Z,19.85
2023-02-24T16:30:22.351Z,22.42
2023-02-24T16:32:29.771Z,21.95
2023-02-24T16:34:34.816Z,19.52
2023-02-24T16:36:42.180Z,21.70
2023-02-24T16:38:50.893Z,20.38
2023-02-24T16:40:56.951Z,20.35
2023-02-24T16:43:01.898Z,21.13
2023-02-24T16:45:07.322Z,20.65
2023-02-24T16:47:17.769Z,19.85
2023-02-24T16:49:26.306Z,19.92
2023-02-24T16:51:31.632Z,21.73
2023-02-24T16:53:39.037Z,22.80
2023-02-24T16:55:44.150Z,18.38
2023-02-24T16:57:48.996Z,22.52
2023-02-24T16:59:53.801Z,21.20
2023-02-24T17:01:59.637Z,24.50
2023-02-24T17:04:07.621Z,22.52
2023-02-24T17:06:12.722Z,19.55
2023-02-24T17:08:18.045Z,21.13
2023-02-24T17:12:30.444Z,22.92
2023-02-24T17:14:35.250Z,23.90
2023-02-24T17:16:41.989Z,22.25
2023-02-24T17:18:46.944Z,19.45
2023-02-24T17:20:51.937Z,21.63
2023-02-24T17:22:56.782Z,19.88
2023-02-24T17:25:01.929Z,20.27
2023-02-24T17:27:09.563Z,21.42
2023-02-24T17:29:16.600Z,25.17
2023-02-24T17:31:21.529Z,21.30
2023-02-24T17:33:26.452Z,23.25
2023-02-24T17:35:31.871Z,23.40
2023-02-24T17:37:36.642Z,19.65
2023-02-24T17:39:41.461Z,22.08
2023-02-24T17:41:46.234Z,20.35
2023-02-24T17:43:55.734Z,24.15
2023-02-24T17:46:00.556Z,24.70
2023-02-24T17:48:05.354Z,21.02
2023-02-24T17:50:13.119Z,21.60
2023-02-24T17:52:18.170Z,23.38
2023-02-24T17:54:30.518Z,22.40
2023-02-24T17:56:35.338Z,22.20
2023-02-24T17:58:40.406Z,22.13
2023-02-24T18:00:47.740Z,20.23
2023-02-24T18:02:52.587Z,22.65
2023-02-24T18:04:57.421Z,24.08
2023-02-24T18:07:02.311Z,19.20
2023-02-24T18:09:07.106Z,23.20
2023-02-24T18:11:16.975Z,22.98
2023-02-24T18:13:21.787Z,23.77
2023-02-24T18:15:26.607Z,20.33
2023-02-24T18:17:35.806Z,24.38
2023-02-24T18:19:40.822Z,20.75
2023-02-24T18:21:45.666Z,19.40
2023-02-24T18:23:50.706Z,18.90
2023-02-24T18:25:55.509Z,23.77
2023-02-24T18:28:00.378Z,21.00
2023-02-24T18:30:06.896Z,21.27
2023-02-24T18:32:11.885Z,20.98
2023-02-24T18:36:24.285Z,19.85
2023-02-24T18:38:29.471Z,18.83
2023-02-24T18:40:34.336Z,20.48
2023-02-24T18:42:39.202Z,19.58
2023-02-24T18:44:43.950Z,20.73
2023-02-24T18:46:48.911Z,22.52
2023-02-24T18:48:54.863Z,20.25
2023-02-24T18:51:03.755Z,20.67
2023-02-24T18:53:09.053Z,21.83
2023-02-24T18:55:14.028Z,20.20
2023-02-24T18:57:18.872Z,22.58
2023-02-24T18:59:23.774Z,18.75
2023-02-24T19:01:30.719Z,19.50
2023-02-24T19:03:35.978Z,20.52
2023-02-24T19:05:41.267Z,19.02
2023-02-24T19:07:48.697Z,18.90
2023-02-24T19:09:54.051Z,19.48
2023-02-24T19:11:58.945Z,18.00
2023-02-24T19:14:04.010Z,16.08
2023-02-24T19:18:14.956Z,19.23
2023-02-24T19:20:20.112Z,19.83
2023-02-24T19:24:32.224Z,20.35
2023-02-24T19:26:37.548Z,19.45
2023-02-24T19:30:47.114Z,20.42
2023-02-24T19:32:52.384Z,16.15
2023-02-24T19:34:57.829Z,16.95
2023-02-24T19:39:08.897Z,16.40
2023-02-24T19:41:16.391Z,18.15
2023-02-24T19:43:21.236Z,15.40
2023-02-24T19:45:26.290Z,14.32
2023-02-24T19:47:31.142Z,13.60
2023-02-24T19:49:36.014Z,13.82
2023-02-24T19:51:40.869Z,15.52
2023-02-24T19:53:46.234Z,11.85
2023-02-24T19:55:52.997Z,14.48
2023-02-24T19:58:00.494Z,12.68
2023-02-24T20:00:05.662Z,12.10
2023-02-24T20:02:16.864Z,10.45
2023-02-24T20:04:21.893Z,12.07
2023-02-24T20:06:31.316Z,8.65
2023-02-24T20:08:38.045Z,8.00
2023-02-24T20:10:42.893Z,9.00
2023-02-24T20:12:47.953Z,9.98
2023-02-24T20:14:55.558Z,9.27
2023-02-24T20:17:00.482Z,8.38
2023-02-24T20:19:06.071Z,6.60
2023-02-24T20:21:12.290Z,8.15
2023-02-24T20:23:17.161Z,6.55
2023-02-24T20:25:21.986Z,7.22
2023-02-24T20:27:26.789Z,8.35
2023-02-24T20:29:33.035Z,6.50
2023-02-24T20:31:41.030Z,7.50
2023-02-24T20:33:46.612Z,8.38
2023-02-24T20:35:51.450Z,7.25
2023-02-24T20:37:56.216Z,7.25
2023-02-24T20:40:01.019Z,6.95
2023-02-24T20:42:06.224Z,9.45
2023-02-24T20:44:11.326Z,9.27
2023-02-24T20:48:25.094Z,8.38
2023-02-24T20:50:30.485Z,7.65
2023-02-24T20:52:37.680Z,9.25
2023-02-24T20:54:43.444Z,6.70
2023-02-24T20:56:49.276Z,6.57
2023-02-24T20:58:56.119Z,7.18
2023-02-24T21:01:01.140Z,8.20
2023-02-24T21:03:07.843Z,5.90
2023-02-24T21:05:21.351Z,6.35
2023-02-24T21:07:26.316Z,7.07
2023-02-24T21:09:37.221Z,8.73
2023-02-24T21:11:42.237Z,9.98
2023-02-24T21:13:49.353Z,6.20
2023-02-24T21:15:54.796Z,8.60
2023-02-24T21:17:59.602Z,6.32
2023-02-24T21:20:04.501Z,7.10
2023-02-24T21:22:11.985Z,9.13
2023-02-24T21:24:16.816Z,5.65
2023-02-24T21:26:26.027Z,6.22
2023-02-24T21:28:31.265Z,6.60
2023-02-24T21:32:40.911Z,5.82
2023-02-24T21:34:45.862Z,5.05
2023-02-24T21:36:50.857Z,8.32
2023-02-24T21:38:58.469Z,7.65
2023-02-24T21:41:03.692Z,6.13
2023-02-24T21:45:14.775Z,8.55
2023-02-24T21:47:20.572Z,6.03
2023-02-24T21:49:26.601Z,7.25
2023-02-24T21:51:31.917Z,7.13
2023-02-24T21:53:43.576Z,5.03
2023-02-24T21:55:50.996Z,8.23
2023-02-24T21:57:56.029Z,7.63
2023-02-24T22:00:02.163Z,7.50
2023-02-24T22:02:16.264Z,7.05
2023-02-24T22:04:21.807Z,6.63
2023-02-24T22:06:31.302Z,9.00
2023-02-24T22:08:37.426Z,8.30
2023-02-24T22:10:42.795Z,6.18
2023-02-24T22:12:50.719Z,7.72
2023-02-24T22:14:55.479Z,7.13
2023-02-24T22:17:00.465Z,8.85
2023-02-24T22:19:06.352Z,7.22
2023-02-24T22:21:12.565Z,6.40
2023-02-24T22:23:17.364Z,5.22
2023-02-24T22:25:22.222Z,6.03
2023-02-24T22:27:27.045Z,7.75
2023-02-24T22:29:34.537Z,6.65
2023-02-24T22:31:43.766Z,5.13
2023-02-24T22:33:49.736Z,5.63
2023-02-24T22:35:57.023Z,7.32
2023-02-24T22:38:01.911Z,6.55
2023-02-24T22:40:07.590Z,6.57
2023-02-24T22:42:12.507Z,5.28
2023-02-24T22:44:19.356Z,6.18
2023-02-24T22:46:29.562Z,4.97
2023-02-24T22:48:35.900Z,5.20
2023-02-24T22:50:40.724Z,5.72
2023-02-24T22:52:45.592Z,5.53
2023-02-24T22:54:50.653Z,6.03
2023-02-24T22:57:00.257Z,6.05
2023-02-24T22:59:05.103Z,5.47
2023-02-24T23:01:12.399Z,5.07
2023-02-24T23:03:21.395Z,6.55
2023-02-24T23:05:26.225Z,6.88
2023-02-24T23:07:31.069Z,7.15
2023-02-24T23:09:35.844Z,6.18
2023-02-24T23:11:43.040Z,6.38
2023-02-24T23:13:49.255Z,6.00
2023-02-24T23:15:54.049Z,6.05
2023-02-24T23:17:58.859Z,6.00
2023-02-24T23:20:12.854Z,8.20
2023-02-24T23:22:19.133Z,7.45
2023-02-24T23:24:24.762Z,6.65
2023-02-24T23:26:32.127Z,6.90
2023-02-24T23:28:37.886Z,8.40
2023-02-24T23:30:44.113Z,8.23
2023-02-24T23:32:48.995Z,7.80
2023-02-24T23:34:56.925Z,8.05
2023-02-24T23:37:04.319Z,9.43
2023-02-24T23:39:10.793Z,11.45
2023-02-24T23:41:16.762Z,10.57
2023-02-24T23:43:21.663Z,12.73
2023-02-24T23:45:26.515Z,10.60
2023-02-24T23:47:31.387Z,12.90
2023-02-24T23:49:47.541Z,13.73
2023-02-24T23:51:54.230Z,14.20
2023-02-24T23:54:01.786Z,12.13
2023-02-24T23:56:10.940Z,10.40
2023-02-24T23:58:16.794Z,12.50
